MYNN Airport Information

Runway Information
Runway 09 Length 8273 ft width 150 ft
Elevation 14 ft Threshold 0 ft Heading 90
Runway 27 Length 8273 ft Width 150 ft
Elevation 13 ft Threshold 0 ft Heading 270
Runway 14 Length 11353 ft width 150 ft
Elevation 13 ft Threshold 0 ft Heading 135
Runway 32 Length 11353 ft Width 150 ft
Elevation 14 ft Threshold 0 ft Heading 315
Airport Frequencies
Type APP Name APP Frequency 121 MHZ
Type ATIS Name ATIS Frequency 118.7 MHZ
Type CLD Name CLNC DEL Frequency 118.3 MHZ
Type CTAF Name CTAF Frequency 122.95 MHZ
Type GND Name GND Frequency 121.7 MHZ
Type RDO Name RDO Frequency 128 MHZ
Type TWR Name TWR Frequency 119.5 MHZ
Type UNIC Name UNICOM Frequency 123 MHZ
Airport Navaids
Type VOR-DME Name Nassau Frequency 112700 KHZ
Type NDB Name Nassau Frequency 251 KHZ
Airport Weather Information & NOTAM
ADDS - METARS form results

(0147 UTC 19 January 2018)
 
METAR text: MYNN 190100Z 35007KT 9999 BKN035 19/12 A3022
Conditions at: MYNN (NASSAU INTL , BS) observed 0100 UTC 19 January 2018
Temperature: 19.0°C (66°F)
Dewpoint: 12.0°C (54°F) [RH = 64%]
Pressure (altimeter): 30.22 inches Hg (1023.5 mb)
Winds: from the N (350 degrees) at 8 MPH (7 knots; 3.6 m/s)
Visibility: 6 or more miles (10+ km)
Ceiling: 3500 feet AGL
Clouds: broken clouds at 3500 feet AGL
Weather: no significant weather observed at this time